createdAt,value
2023-05-02T00:00:08.620Z,8.10
2023-05-02T00:01:08.609Z,8.10
2023-05-02T00:02:08.602Z,8.10
2023-05-02T00:03:08.646Z,8.13
2023-05-02T00:04:08.670Z,8.16
2023-05-02T00:05:08.548Z,8.18
2023-05-02T00:06:08.603Z,8.23
2023-05-02T00:07:08.535Z,8.27
2023-05-02T00:08:08.509Z,8.30
2023-05-02T00:09:08.521Z,8.28
2023-05-02T00:10:08.495Z,8.33
2023-05-02T00:11:08.484Z,8.36
2023-05-02T00:12:08.466Z,8.38
2023-05-02T00:13:08.445Z,8.37
2023-05-02T00:14:08.442Z,8.38
2023-05-02T00:15:08.430Z,8.37
2023-05-02T00:16:08.412Z,8.36
2023-05-02T00:17:08.533Z,8.34
2023-05-02T00:18:08.447Z,8.34
2023-05-02T00:19:08.385Z,8.31
2023-05-02T00:20:08.359Z,8.31
2023-05-02T00:21:08.338Z,8.31
2023-05-02T00:22:08.332Z,8.30
2023-05-02T00:23:08.314Z,8.33
2023-05-02T00:24:08.297Z,8.34
2023-05-02T00:25:08.380Z,8.37
2023-05-02T00:26:08.276Z,8.38
2023-05-02T00:27:08.288Z,8.41
2023-05-02T00:28:08.253Z,8.42
2023-05-02T00:29:08.240Z,8.41
2023-05-02T00:30:08.222Z,8.42
2023-05-02T00:31:08.228Z,8.46
2023-05-02T00:32:08.192Z,8.45
2023-05-02T00:33:08.224Z,8.46
2023-05-02T00:34:08.173Z,8.49
2023-05-02T00:35:08.157Z,8.49
2023-05-02T00:36:08.137Z,8.51
2023-05-02T00:37:08.136Z,8.52
2023-05-02T00:38:08.112Z,8.49
2023-05-02T00:39:08.097Z,8.53
2023-05-02T00:40:08.176Z,8.52
2023-05-02T00:41:08.108Z,8.56
2023-05-02T00:42:08.061Z,8.52
2023-05-02T00:43:08.052Z,8.51
2023-05-02T00:44:08.046Z,8.48
2023-05-02T00:45:08.028Z,8.46
2023-05-02T00:46:08.051Z,8.44
2023-05-02T00:47:07.994Z,8.38
2023-05-02T00:48:08.024Z,8.37
2023-05-02T00:49:07.975Z,8.37
2023-05-02T00:50:07.962Z,8.42
2023-05-02T00:51:07.947Z,8.38
2023-05-02T00:52:07.936Z,8.38
2023-05-02T00:53:07.929Z,8.41
2023-05-02T00:54:07.917Z,8.36
2023-05-02T00:55:07.896Z,8.33
2023-05-02T00:56:07.883Z,8.34
2023-05-02T00:57:07.994Z,8.30
2023-05-02T00:58:07.850Z,8.30
2023-05-02T00:59:07.847Z,8.27
2023-05-02T01:00:07.838Z,8.31
2023-05-02T01:01:07.812Z,8.26
2023-05-02T01:02:07.920Z,8.26
2023-05-02T01:03:07.953Z,8.23
2023-05-02T01:04:07.875Z,8.23
2023-05-02T01:05:07.767Z,8.24
2023-05-02T01:06:07.763Z,8.28
2023-05-02T01:07:07.741Z,8.27
2023-05-02T01:08:07.725Z,8.27
2023-05-02T01:09:07.711Z,8.28
2023-05-02T01:10:07.695Z,8.30
2023-05-02T01:11:07.672Z,8.34
2023-05-02T01:12:07.670Z,8.33
2023-05-02T01:13:07.677Z,8.34
2023-05-02T01:14:07.633Z,8.41
2023-05-02T01:15:07.664Z,8.41
2023-05-02T01:16:07.698Z,8.38
2023-05-02T01:17:07.621Z,8.38
2023-05-02T01:18:07.617Z,8.38
2023-05-02T01:19:07.581Z,8.36
2023-05-02T01:20:07.564Z,8.37
2023-05-02T01:21:07.566Z,8.38
2023-05-02T01:22:07.555Z,8.44
2023-05-02T01:23:07.531Z,8.44
2023-05-02T01:24:07.509Z,8.44
2023-05-02T01:25:07.498Z,8.42
2023-05-02T01:26:07.481Z,8.44
2023-05-02T01:27:07.474Z,8.44
2023-05-02T01:28:07.462Z,8.46
2023-05-02T01:29:07.468Z,8.46
2023-05-02T01:30:07.431Z,8.49
2023-05-02T01:31:07.464Z,8.52
2023-05-02T01:32:07.625Z,8.52
2023-05-02T01:33:07.436Z,8.48
2023-05-02T01:34:07.378Z,8.52
2023-05-02T01:35:07.376Z,8.51
2023-05-02T01:36:07.347Z,8.52
2023-05-02T01:37:07.333Z,8.44
2023-05-02T01:38:07.326Z,8.44
2023-05-02T01:39:07.306Z,8.37
2023-05-02T01:40:07.305Z,8.33
2023-05-02T01:41:07.352Z,8.27
2023-05-02T01:42:07.277Z,8.26
2023-05-02T01:43:07.266Z,8.23
2023-05-02T01:44:07.242Z,8.18
2023-05-02T01:45:07.276Z,8.16
2023-05-02T01:46:07.224Z,8.16
2023-05-02T01:47:07.467Z,8.13
2023-05-02T01:48:07.209Z,8.12
2023-05-02T01:49:07.184Z,8.12
2023-05-02T01:50:07.165Z,8.13
2023-05-02T01:51:07.176Z,8.10
2023-05-02T01:52:07.135Z,8.10
2023-05-02T01:53:07.129Z,8.09
2023-05-02T01:54:07.109Z,8.06
2023-05-02T01:55:07.107Z,8.09
2023-05-02T01:56:07.090Z,8.06
2023-05-02T01:57:07.072Z,8.06
2023-05-02T01:58:07.071Z,8.09
2023-05-02T01:59:07.047Z,8.09
2023-05-02T02:00:07.048Z,8.10
2023-05-02T02:01:07.098Z,8.10
2023-05-02T02:02:07.015Z,8.13
2023-05-02T02:03:07.043Z,8.13
2023-05-02T02:04:07.020Z,8.13
2023-05-02T02:05:06.963Z,8.10
2023-05-02T02:06:06.978Z,8.16
2023-05-02T02:07:06.955Z,8.15
2023-05-02T02:08:06.934Z,8.13
2023-05-02T02:09:06.921Z,8.12
2023-05-02T02:10:06.898Z,8.13
2023-05-02T02:11:06.888Z,8.12
2023-05-02T02:12:06.886Z,8.10
2023-05-02T02:13:06.868Z,8.08
2023-05-02T02:14:06.860Z,8.06
2023-05-02T02:15:06.844Z,8.01
2023-05-02T02:16:06.881Z,8.00
2023-05-02T02:17:07.064Z,8.00
2023-05-02T02:18:06.883Z,8.00
2023-05-02T02:19:06.789Z,8.03
2023-05-02T02:20:06.776Z,8.01
2023-05-02T02:21:06.761Z,8.01
2023-05-02T02:22:06.750Z,8.00
2023-05-02T02:23:06.756Z,7.95
2023-05-02T02:24:06.720Z,7.98
2023-05-02T02:25:06.705Z,7.97
2023-05-02T02:26:06.690Z,7.95
2023-05-02T02:27:06.683Z,7.94
2023-05-02T02:28:06.662Z,7.91
2023-05-02T02:29:06.656Z,7.88
2023-05-02T02:30:06.635Z,7.90
2023-05-02T02:31:06.654Z,7.93
2023-05-02T02:32:06.608Z,7.94
2023-05-02T02:33:06.646Z,7.91
2023-05-02T02:34:06.591Z,7.93
2023-05-02T02:35:06.576Z,7.95
2023-05-02T02:36:06.566Z,7.97
2023-05-02T02:37:06.542Z,7.95
2023-05-02T02:38:06.541Z,7.97
2023-05-02T02:39:06.515Z,7.95
2023-05-02T02:40:06.505Z,7.98
2023-05-02T02:41:06.497Z,7.97
2023-05-02T02:42:06.476Z,8.00
2023-05-02T02:43:06.479Z,8.01
2023-05-02T02:44:06.456Z,8.03
2023-05-02T02:45:06.440Z,7.98
2023-05-02T02:46:06.485Z,8.00
2023-05-02T02:47:06.415Z,8.00
2023-05-02T02:48:06.429Z,8.01
2023-05-02T02:49:06.433Z,8.00
2023-05-02T02:50:06.401Z,8.00
2023-05-02T02:51:06.360Z,8.01
2023-05-02T02:52:06.354Z,8.00
2023-05-02T02:53:06.342Z,7.98
2023-05-02T02:54:19.103Z,7.98
2023-05-02T02:55:07.361Z,7.94
2023-05-02T02:56:06.302Z,7.95
2023-05-02T02:57:06.291Z,7.97
2023-05-02T02:58:06.268Z,7.95
2023-05-02T02:59:06.254Z,7.94
2023-05-02T03:00:06.254Z,7.93
2023-05-02T03:01:06.256Z,7.94
2023-05-02T03:02:06.341Z,7.94
2023-05-02T03:03:06.236Z,7.95
2023-05-02T03:04:06.231Z,7.93
2023-05-02T03:05:06.205Z,7.93
2023-05-02T03:06:06.216Z,7.94
2023-05-02T03:07:06.161Z,7.97
2023-05-02T03:08:06.131Z,7.95
2023-05-02T03:09:06.136Z,7.98
2023-05-02T03:10:06.147Z,8.00
2023-05-02T03:11:06.098Z,8.01
2023-05-02T03:12:06.084Z,8.03
2023-05-02T03:13:06.071Z,8.01
2023-05-02T03:14:06.058Z,8.01
2023-05-02T03:15:06.065Z,8.03
2023-05-02T03:16:06.061Z,8.03
2023-05-02T03:17:06.037Z,8.06
2023-05-02T03:18:06.114Z,8.05
2023-05-02T03:19:06.020Z,8.01
2023-05-02T03:20:05.990Z,8.01
2023-05-02T03:21:06.008Z,8.00
2023-05-02T03:22:05.975Z,7.98
2023-05-02T03:23:05.954Z,7.97
2023-05-02T03:24:05.949Z,7.94
2023-05-02T03:25:05.919Z,7.88
2023-05-02T03:26:05.910Z,7.83
2023-05-02T03:27:05.886Z,7.80
2023-05-02T03:28:05.881Z,7.80
2023-05-02T03:29:05.858Z,7.77
2023-05-02T03:30:05.886Z,7.80
2023-05-02T03:31:05.872Z,7.82
2023-05-02T03:32:05.954Z,7.79
2023-05-02T03:33:05.850Z,7.80
2023-05-02T03:34:05.795Z,7.82
2023-05-02T03:35:05.791Z,7.77
2023-05-02T03:36:05.769Z,7.77
2023-05-02T03:37:05.787Z,7.75
2023-05-02T03:38:05.763Z,7.73
2023-05-02T03:39:05.727Z,7.70
2023-05-02T03:40:05.743Z,7.67
2023-05-02T03:41:05.711Z,7.60
2023-05-02T03:42:05.701Z,7.58
2023-05-02T03:43:05.676Z,7.56
2023-05-02T03:44:05.670Z,7.57
2023-05-02T03:45:05.655Z,7.56
2023-05-02T03:46:05.650Z,7.54
2023-05-02T03:47:05.753Z,7.54
2023-05-02T03:48:05.692Z,7.53
2023-05-02T03:49:05.592Z,7.50
2023-05-02T03:50:05.598Z,7.48
2023-05-02T03:51:05.574Z,7.47
2023-05-02T03:52:05.566Z,7.45
2023-05-02T03:53:05.584Z,7.42
2023-05-02T03:54:05.547Z,7.42
2023-05-02T03:55:05.524Z,7.43
2023-05-02T03:56:05.510Z,7.42
2023-05-02T03:57:05.502Z,7.40
2023-05-02T03:58:05.479Z,7.40
2023-05-02T03:59:05.470Z,7.40
2023-05-02T04:00:05.457Z,7.43
2023-05-02T04:01:05.448Z,7.47
2023-05-02T04:02:05.469Z,7.50
2023-05-02T04:03:05.450Z,7.53
2023-05-02T04:04:05.493Z,7.48
2023-05-02T04:05:05.389Z,7.43
2023-05-02T04:06:05.440Z,7.45
2023-05-02T04:07:05.374Z,7.43
2023-05-02T04:08:05.364Z,7.42
2023-05-02T04:09:05.386Z,7.40
2023-05-02T04:10:05.340Z,7.42
2023-05-02T04:11:05.313Z,7.42
2023-05-02T04:12:05.302Z,7.40
2023-05-02T04:13:05.295Z,7.39
2023-05-02T04:14:05.283Z,7.38
2023-05-02T04:15:05.260Z,7.39
2023-05-02T04:16:05.239Z,7.39
2023-05-02T04:17:05.251Z,7.38
2023-05-02T04:18:05.247Z,7.38
2023-05-02T04:19:05.215Z,7.40
2023-05-02T04:20:05.735Z,7.43
2023-05-02T04:21:05.190Z,7.45
2023-05-02T04:22:05.165Z,7.45
2023-05-02T04:23:05.156Z,7.45
2023-05-02T04:24:05.150Z,7.45
2023-05-02T04:25:05.192Z,7.45
2023-05-02T04:26:05.140Z,7.43
2023-05-02T04:27:05.103Z,7.38
2023-05-02T04:28:05.079Z,7.33
2023-05-02T04:29:05.080Z,7.33
2023-05-02T04:30:05.057Z,7.31
2023-05-02T04:31:05.094Z,7.32
2023-05-02T04:32:05.034Z,7.31
2023-05-02T04:33:05.052Z,7.33
2023-05-02T04:34:05.016Z,7.36
2023-05-02T04:35:04.995Z,7.38
2023-05-02T04:36:04.987Z,7.39
2023-05-02T04:37:04.978Z,7.36
2023-05-02T04:38:04.959Z,7.36
2023-05-02T04:39:04.940Z,7.32
2023-05-02T04:40:04.936Z,7.29
2023-05-02T04:41:09.199Z,7.29
2023-05-02T04:42:04.908Z,7.25
2023-05-02T04:43:04.878Z,7.20
2023-05-02T04:44:04.878Z,7.18
2023-05-02T04:45:04.873Z,7.10
2023-05-02T04:46:04.887Z,7.03
2023-05-02T04:47:04.843Z,7.00
2023-05-02T04:48:04.895Z,7.00
2023-05-02T04:49:04.810Z,7.05
2023-05-02T04:50:04.791Z,7.03
2023-05-02T04:51:04.791Z,7.06
2023-05-02T04:52:04.783Z,7.07
2023-05-02T04:53:04.781Z,7.07
2023-05-02T04:54:04.738Z,7.13
2023-05-02T04:55:04.734Z,7.11
2023-05-02T04:56:04.710Z,7.06
2023-05-02T04:57:04.742Z,7.02
2023-05-02T04:58:04.693Z,7.03
2023-05-02T04:59:04.686Z,7.10
2023-05-02T05:00:04.677Z,7.14
2023-05-02T05:01:04.668Z,7.15
2023-05-02T05:02:04.753Z,7.18
2023-05-02T05:03:04.678Z,7.18
2023-05-02T05:04:04.687Z,7.21
2023-05-02T05:05:04.725Z,7.25
2023-05-02T05:06:04.634Z,7.28
2023-05-02T05:07:04.593Z,7.35
2023-05-02T05:08:04.559Z,7.40
2023-05-02T05:09:04.542Z,7.43
2023-05-02T05:10:04.568Z,7.50
2023-05-02T05:11:04.520Z,7.51
2023-05-02T05:12:04.519Z,7.51
2023-05-02T05:13:04.523Z,7.53
2023-05-02T05:14:04.490Z,7.50
2023-05-02T05:15:04.483Z,7.51
2023-05-02T05:16:04.547Z,7.54
2023-05-02T05:17:04.451Z,7.56
2023-05-02T05:18:04.470Z,7.58
2023-05-02T05:19:04.418Z,7.58
2023-05-02T05:20:04.410Z,7.61
2023-05-02T05:21:04.403Z,7.67
2023-05-02T05:22:04.391Z,7.70
2023-05-02T05:23:04.371Z,7.75
2023-05-02T05:24:04.362Z,7.79
2023-05-02T05:25:04.338Z,7.82
2023-05-02T05:26:04.331Z,7.83
2023-05-02T05:27:04.320Z,7.85
2023-05-02T05:28:04.301Z,7.87
2023-05-02T05:29:04.327Z,7.87
2023-05-02T05:30:04.276Z,7.87
2023-05-02T05:31:04.288Z,7.90
2023-05-02T05:32:04.302Z,7.95
2023-05-02T05:33:04.291Z,7.98
2023-05-02T05:34:04.282Z,8.00
2023-05-02T05:35:04.205Z,8.00
2023-05-02T05:36:04.206Z,8.03
2023-05-02T05:37:04.177Z,8.05
2023-05-02T05:38:04.174Z,8.09
2023-05-02T05:39:04.211Z,8.12
2023-05-02T05:40:04.400Z,8.16
2023-05-02T05:41:04.136Z,8.23
2023-05-02T05:42:04.111Z,8.24
2023-05-02T05:43:04.110Z,8.27
2023-05-02T05:44:04.082Z,8.34
2023-05-02T05:45:04.106Z,8.36
2023-05-02T05:46:04.061Z,8.38
2023-05-02T05:47:04.113Z,8.41
2023-05-02T05:48:04.116Z,8.41
2023-05-02T05:49:04.035Z,8.44
2023-05-02T05:50:04.124Z,8.44
2023-05-02T05:51:04.016Z,8.48
2023-05-02T05:52:04.000Z,8.48
2023-05-02T05:53:04.002Z,8.51
2023-05-02T05:54:03.965Z,8.53
2023-05-02T05:55:03.948Z,8.55
2023-05-02T05:56:03.967Z,8.58
2023-05-02T05:57:03.913Z,8.58
2023-05-02T05:58:03.915Z,8.61
2023-05-02T05:59:03.908Z,8.63
2023-05-02T06:00:04.026Z,8.63
2023-05-02T06:01:03.894Z,8.66
2023-05-02T06:02:03.896Z,8.67
2023-05-02T06:03:04.380Z,8.70
2023-05-02T06:04:03.921Z,8.74
2023-05-02T06:05:04.029Z,8.78
2023-05-02T06:06:03.861Z,8.81
2023-05-02T06:07:03.806Z,8.82
2023-05-02T06:08:03.782Z,8.85
2023-05-02T06:09:03.774Z,8.88
2023-05-02T06:10:03.762Z,8.92
2023-05-02T06:11:03.745Z,8.92
2023-05-02T06:12:03.736Z,8.95
2023-05-02T06:13:03.748Z,9.02
2023-05-02T06:14:03.699Z,9.03
2023-05-02T06:15:03.711Z,9.11
2023-05-02T06:16:03.694Z,9.16
2023-05-02T06:17:03.724Z,9.18
2023-05-02T06:18:03.775Z,9.23
2023-05-02T06:19:03.658Z,9.26
2023-05-02T06:20:03.620Z,9.28
2023-05-02T06:21:03.621Z,9.31
2023-05-02T06:22:03.620Z,9.28
2023-05-02T06:23:03.580Z,9.25
2023-05-02T06:24:03.574Z,9.25
2023-05-02T06:25:03.558Z,9.23
2023-05-02T06:26:03.550Z,9.22
2023-05-02T06:27:03.541Z,9.19
2023-05-02T06:28:03.563Z,9.19
2023-05-02T06:29:03.524Z,9.22
2023-05-02T06:30:03.994Z,9.22
2023-05-02T06:31:03.557Z,9.31
2023-05-02T06:32:03.572Z,9.37
2023-05-02T06:33:03.550Z,9.41
2023-05-02T06:34:03.440Z,9.47
2023-05-02T06:35:03.428Z,9.54
2023-05-02T06:36:03.405Z,9.54
2023-05-02T06:37:03.398Z,9.58
2023-05-02T06:38:03.401Z,9.61
2023-05-02T06:39:03.371Z,9.56
2023-05-02T06:40:03.714Z,9.56
2023-05-02T06:41:06.014Z,9.56
2023-05-02T06:42:05.815Z,9.62
2023-05-02T06:43:03.356Z,9.66
2023-05-02T06:44:03.307Z,9.72
2023-05-02T06:45:03.295Z,9.72
2023-05-02T06:46:03.291Z,9.79
2023-05-02T06:47:03.286Z,9.89
2023-05-02T06:48:03.302Z,9.92
2023-05-02T06:49:03.266Z,9.94
2023-05-02T06:50:03.383Z,10.02
2023-05-02T06:51:03.240Z,10.07
2023-05-02T06:52:03.209Z,10.07
2023-05-02T06:53:03.194Z,10.10
2023-05-02T06:54:03.180Z,10.20
2023-05-02T06:55:03.168Z,10.28
2023-05-02T06:56:03.221Z,10.34
2023-05-02T06:57:03.133Z,10.40
2023-05-02T06:58:03.135Z,10.56
2023-05-02T06:59:03.118Z,10.71
2023-05-02T07:00:03.358Z,10.87
2023-05-02T07:01:03.140Z,11.10
2023-05-02T07:02:05.189Z,11.65
2023-05-02T07:03:03.131Z,11.86
2023-05-02T07:04:03.098Z,11.90
2023-05-02T07:05:03.072Z,11.91
2023-05-02T07:06:03.079Z,12.00
2023-05-02T07:07:03.012Z,12.13
2023-05-02T07:08:03.006Z,12.27
2023-05-02T07:09:02.996Z,12.39
2023-05-02T07:10:03.191Z,12.98
2023-05-02T07:11:02.953Z,13.74
2023-05-02T07:12:05.327Z,14.20
2023-05-02T07:13:02.922Z,15.10
2023-05-02T07:14:02.913Z,15.36
2023-05-02T07:15:02.902Z,16.02
2023-05-02T07:16:02.954Z,16.28
2023-05-02T07:17:03.023Z,16.09
2023-05-02T07:18:02.914Z,15.83
2023-05-02T07:19:02.856Z,15.58
2023-05-02T07:20:03.041Z,15.17
2023-05-02T07:21:02.858Z,14.82
2023-05-02T07:22:02.822Z,14.45
2023-05-02T07:23:02.802Z,14.07
2023-05-02T07:24:02.800Z,13.83
2023-05-02T07:25:02.775Z,13.57
2023-05-02T07:26:05.594Z,13.16
2023-05-02T07:27:02.749Z,12.90
2023-05-02T07:28:02.740Z,12.72
2023-05-02T07:29:02.743Z,12.47
2023-05-02T07:30:03.101Z,12.28
2023-05-02T07:31:02.724Z,12.06
2023-05-02T07:32:02.781Z,11.99
2023-05-02T07:33:02.688Z,11.95
2023-05-02T07:34:02.656Z,11.90
2023-05-02T07:35:02.654Z,11.91
2023-05-02T07:36:02.633Z,11.90
2023-05-02T07:37:02.753Z,11.87
2023-05-02T07:38:02.609Z,11.86
2023-05-02T07:39:02.592Z,11.94
2023-05-02T07:40:02.900Z,11.95
2023-05-02T07:41:02.572Z,12.03
2023-05-02T07:42:02.554Z,12.09
2023-05-02T07:43:02.547Z,12.21
2023-05-02T07:44:02.537Z,12.28
2023-05-02T07:45:02.529Z,12.32
2023-05-02T07:46:02.591Z,12.31
2023-05-02T07:47:02.482Z,12.28
2023-05-02T07:48:02.556Z,12.29
2023-05-02T07:49:02.450Z,12.27
2023-05-02T07:50:02.728Z,12.35
2023-05-02T07:51:02.438Z,12.39
2023-05-02T07:52:02.420Z,12.45
2023-05-02T07:53:02.449Z,12.50
2023-05-02T07:54:02.399Z,12.43
2023-05-02T07:55:02.391Z,12.50
2023-05-02T07:56:02.380Z,12.57
2023-05-02T07:57:02.516Z,12.47
2023-05-02T07:58:02.339Z,12.46
2023-05-02T07:59:03.656Z,12.46
2023-05-02T08:00:02.872Z,12.58
2023-05-02T08:01:02.309Z,12.70
2023-05-02T08:02:02.287Z,13.30
2023-05-02T08:03:02.390Z,13.38
2023-05-02T08:04:02.520Z,13.53
2023-05-02T08:05:02.367Z,14.65
2023-05-02T08:06:02.330Z,15.49
2023-05-02T08:07:02.228Z,15.72
2023-05-02T08:08:02.217Z,15.51
2023-05-02T08:09:02.239Z,15.39
2023-05-02T08:10:02.526Z,15.43
2023-05-02T08:11:02.169Z,16.00
2023-05-02T08:12:02.176Z,15.95
2023-05-02T08:13:02.158Z,15.75
2023-05-02T08:14:02.127Z,15.64
2023-05-02T08:15:02.111Z,15.47
2023-05-02T08:16:02.179Z,15.88
2023-05-02T08:17:02.104Z,16.16
2023-05-02T08:18:02.161Z,16.08
2023-05-02T08:19:02.062Z,15.84
2023-05-02T08:20:02.341Z,15.83
2023-05-02T08:21:02.038Z,15.91
2023-05-02T08:22:02.035Z,16.15
2023-05-02T08:23:02.029Z,16.39
2023-05-02T08:24:02.020Z,16.17
2023-05-02T08:25:02.038Z,15.91
2023-05-02T08:26:01.979Z,15.97
2023-05-02T08:27:01.967Z,15.95
2023-05-02T08:28:01.946Z,15.75
2023-05-02T08:29:01.957Z,15.67
2023-05-02T08:30:02.012Z,16.02
2023-05-02T08:31:01.933Z,16.28
2023-05-02T08:32:01.954Z,16.66
2023-05-02T08:33:01.909Z,16.93
2023-05-02T08:34:01.888Z,16.72
2023-05-02T08:35:01.872Z,16.58
2023-05-02T08:36:01.850Z,16.61
2023-05-02T08:37:01.830Z,16.15
2023-05-02T08:38:01.823Z,15.68
2023-05-02T08:39:01.814Z,15.25
2023-05-02T08:40:02.115Z,15.11
2023-05-02T08:41:01.823Z,14.99
2023-05-02T08:42:01.764Z,14.91
2023-05-02T08:43:01.764Z,14.68
2023-05-02T08:44:01.745Z,14.53
2023-05-02T08:45:01.746Z,14.45
2023-05-02T08:46:01.741Z,14.30
2023-05-02T08:47:01.728Z,14.18
2023-05-02T08:48:01.726Z,14.17
2023-05-02T08:49:01.678Z,14.07
2023-05-02T08:50:02.258Z,14.07
2023-05-02T08:51:01.645Z,14.08
2023-05-02T08:52:01.640Z,14.12
2023-05-02T08:53:01.633Z,14.05
2023-05-02T08:54:01.692Z,14.05
2023-05-02T08:55:02.099Z,14.11
2023-05-02T08:56:01.592Z,14.04
2023-05-02T08:57:01.702Z,14.00
2023-05-02T08:58:01.564Z,13.99
2023-05-02T08:59:01.546Z,13.90
2023-05-02T09:00:01.554Z,13.90
2023-05-02T09:01:01.540Z,13.87
2023-05-02T09:02:01.506Z,13.93
2023-05-02T09:03:01.536Z,13.90
2023-05-02T09:04:01.537Z,13.87
2023-05-02T09:05:01.668Z,13.89
2023-05-02T09:06:01.493Z,13.85
2023-05-02T09:07:01.447Z,13.78
2023-05-02T09:08:01.430Z,13.72
2023-05-02T09:09:01.420Z,13.60
2023-05-02T09:10:01.420Z,13.57
2023-05-02T09:11:01.389Z,13.44
2023-05-02T09:12:01.374Z,13.38
2023-05-02T09:13:01.406Z,13.35
2023-05-02T09:14:01.512Z,13.31
2023-05-02T09:15:01.609Z,13.30
2023-05-02T09:16:01.334Z,13.35
2023-05-02T09:17:01.350Z,13.42
2023-05-02T09:18:01.351Z,13.49
2023-05-02T09:19:01.282Z,13.53
2023-05-02T09:20:01.266Z,13.50
2023-05-02T09:21:01.254Z,13.46
2023-05-02T09:22:01.244Z,13.41
2023-05-02T09:23:01.246Z,13.33
2023-05-02T09:24:01.221Z,13.37
2023-05-02T09:25:01.485Z,13.31
2023-05-02T09:26:01.192Z,13.33
2023-05-02T09:27:01.204Z,13.27
2023-05-02T09:28:01.171Z,13.25
2023-05-02T09:29:01.187Z,13.15
2023-05-02T09:30:01.136Z,13.09
2023-05-02T09:31:01.138Z,13.03
2023-05-02T09:32:01.144Z,12.94
2023-05-02T09:33:01.204Z,12.91
2023-05-02T09:34:01.088Z,12.87
2023-05-02T09:35:01.294Z,12.80
2023-05-02T09:36:01.066Z,12.79
2023-05-02T09:37:01.046Z,12.70
2023-05-02T09:38:01.056Z,12.72
2023-05-02T09:39:01.023Z,12.68
2023-05-02T09:40:01.023Z,12.60
2023-05-02T09:41:01.020Z,12.61
2023-05-02T09:42:00.983Z,12.54
2023-05-02T09:43:00.966Z,12.58
2023-05-02T09:44:00.962Z,12.58
2023-05-02T09:45:01.311Z,12.58
2023-05-02T09:46:00.961Z,12.50
2023-05-02T09:47:00.922Z,12.54
2023-05-02T09:48:00.949Z,12.46
2023-05-02T09:49:00.886Z,12.47
2023-05-02T09:50:00.886Z,12.43
2023-05-02T09:51:00.861Z,12.43
2023-05-02T09:52:00.848Z,12.45
2023-05-02T09:53:00.834Z,12.46
2023-05-02T09:54:00.835Z,12.45
2023-05-02T09:55:01.160Z,12.43
2023-05-02T09:56:00.803Z,12.53
2023-05-02T09:57:00.784Z,12.57
2023-05-02T09:58:00.771Z,12.65
2023-05-02T09:59:00.760Z,12.73
2023-05-02T10:00:00.908Z,12.78
2023-05-02T10:01:00.786Z,12.90
2023-05-02T10:02:00.803Z,12.90
2023-05-02T10:03:00.743Z,12.90
2023-05-02T10:04:00.717Z,12.93
2023-05-02T10:05:00.895Z,12.91
2023-05-02T10:06:00.751Z,12.86
2023-05-02T10:07:00.670Z,12.85
2023-05-02T10:08:00.664Z,12.83
2023-05-02T10:09:00.640Z,12.85
2023-05-02T10:10:00.620Z,12.86
2023-05-02T10:11:00.600Z,12.85
2023-05-02T10:12:00.595Z,12.82
2023-05-02T10:13:00.581Z,12.78
2023-05-02T10:14:00.566Z,12.78
2023-05-02T10:15:01.181Z,12.78
2023-05-02T10:16:00.615Z,12.78
2023-05-02T10:17:00.548Z,12.78
2023-05-02T10:18:00.572Z,12.82
2023-05-02T10:19:00.495Z,12.76
2023-05-02T10:20:00.502Z,12.82
2023-05-02T10:21:00.480Z,12.87
2023-05-02T10:22:00.467Z,12.91
2023-05-02T10:23:00.458Z,12.91
2023-05-02T10:24:00.446Z,12.87
2023-05-02T10:25:00.687Z,12.86
2023-05-02T10:26:00.468Z,12.91
2023-05-02T10:27:00.392Z,12.93
2023-05-02T10:28:00.376Z,12.94
2023-05-02T10:29:00.380Z,13.01
2023-05-02T10:30:00.364Z,13.08
2023-05-02T10:31:00.384Z,13.11
2023-05-02T10:32:00.434Z,13.22
2023-05-02T10:33:00.441Z,13.33
2023-05-02T10:34:00.327Z,13.33
2023-05-02T10:35:00.578Z,13.39
2023-05-02T10:36:00.272Z,13.46
2023-05-02T10:37:00.270Z,13.52
2023-05-02T10:38:00.257Z,13.60
2023-05-02T10:39:00.244Z,13.70
2023-05-02T10:40:00.231Z,13.75
2023-05-02T10:41:00.230Z,13.78
2023-05-02T10:42:00.212Z,13.90
2023-05-02T10:43:00.191Z,13.99
2023-05-02T10:44:00.176Z,13.96
2023-05-02T10:45:00.601Z,14.00
2023-05-02T10:46:00.149Z,14.03
2023-05-02T10:47:00.197Z,13.99
2023-05-02T10:48:00.188Z,13.99
2023-05-02T10:49:00.131Z,13.89
2023-05-02T10:50:00.136Z,13.97
2023-05-02T10:51:00.113Z,13.97
2023-05-02T10:52:00.083Z,14.04
2023-05-02T10:53:00.066Z,14.11
2023-05-02T10:54:00.061Z,14.14
2023-05-02T10:55:00.284Z,14.26
2023-05-02T10:56:00.038Z,14.40
2023-05-02T10:57:00.008Z,14.45
2023-05-02T10:58:00.032Z,14.51
2023-05-02T10:58:59.973Z,14.45
2023-05-02T10:59:59.986Z,14.60
2023-05-02T11:01:00.106Z,14.70
2023-05-02T11:01:59.995Z,14.73
2023-05-02T11:03:00.099Z,14.86
2023-05-02T11:03:59.914Z,15.11
2023-05-02T11:05:00.244Z,15.19
2023-05-02T11:05:59.890Z,15.29
2023-05-02T11:06:59.871Z,15.35
2023-05-02T11:07:59.854Z,15.42
2023-05-02T11:08:59.855Z,15.43
2023-05-02T11:09:59.836Z,15.57
2023-05-02T11:10:59.818Z,15.64
2023-05-02T11:11:59.799Z,15.59
2023-05-02T11:12:59.800Z,15.58
2023-05-02T11:13:59.780Z,15.49
2023-05-02T11:15:00.006Z,15.49
2023-05-02T11:15:59.763Z,15.52
2023-05-02T11:16:59.817Z,15.64
2023-05-02T11:17:59.775Z,15.72
2023-05-02T11:18:59.715Z,15.79
2023-05-02T11:19:59.707Z,15.92
2023-05-02T11:20:59.729Z,15.94
2023-05-02T11:21:59.686Z,16.05
2023-05-02T11:22:59.670Z,16.20
2023-05-02T11:23:59.647Z,16.26
2023-05-02T11:25:00.053Z,16.29
2023-05-02T11:25:59.630Z,16.35
2023-05-02T11:26:59.624Z,16.31
2023-05-02T11:27:59.606Z,16.16
2023-05-02T11:28:59.585Z,16.16
2023-05-02T11:29:59.584Z,16.21
2023-05-02T11:30:59.576Z,16.09
2023-05-02T11:31:59.659Z,15.92
2023-05-02T11:32:59.588Z,15.80
2023-05-02T11:33:59.535Z,15.83
2023-05-02T11:34:59.775Z,15.77
2023-05-02T11:35:59.502Z,15.76
2023-05-02T11:36:59.511Z,15.90
2023-05-02T11:37:59.473Z,16.00
2023-05-02T11:38:59.497Z,16.01
2023-05-02T11:39:59.451Z,16.05
2023-05-02T11:40:59.439Z,16.01
2023-05-02T11:41:59.426Z,16.01
2023-05-02T11:42:59.425Z,16.05
2023-05-02T11:43:59.388Z,16.12
2023-05-02T11:44:59.592Z,16.17
2023-05-02T11:45:59.388Z,16.20
2023-05-02T11:46:59.358Z,16.15
2023-05-02T11:47:59.381Z,15.98
2023-05-02T11:48:59.337Z,15.76
2023-05-02T11:49:59.321Z,15.76
2023-05-02T11:50:59.304Z,15.75
2023-05-02T11:51:59.305Z,15.65
2023-05-02T11:52:59.346Z,15.46
2023-05-02T11:53:59.263Z,15.52
2023-05-02T11:54:59.500Z,15.58
2023-05-02T11:55:59.245Z,15.61
2023-05-02T11:56:59.222Z,15.55
2023-05-02T11:57:59.220Z,15.49
2023-05-02T11:58:59.208Z,15.46
2023-05-02T11:59:59.208Z,15.52
2023-05-02T12:00:59.178Z,15.57
2023-05-02T12:01:59.184Z,15.52
2023-05-02T12:02:59.231Z,15.49
2023-05-02T12:03:59.218Z,15.51
2023-05-02T12:04:59.284Z,15.44
2023-05-02T12:05:59.158Z,15.46
2023-05-02T12:06:59.169Z,15.37
2023-05-02T12:07:59.112Z,15.17
2023-05-02T12:08:59.141Z,15.07
2023-05-02T12:09:59.078Z,15.06
2023-05-02T12:10:59.056Z,15.00
2023-05-02T12:11:59.065Z,14.92
2023-05-02T12:12:59.039Z,14.91
2023-05-02T12:13:59.057Z,14.88
2023-05-02T12:14:59.209Z,14.89
2023-05-02T12:15:59.015Z,14.85
2023-05-02T12:16:58.962Z,14.84
2023-05-02T12:17:59.031Z,14.78
2023-05-02T12:18:58.939Z,14.72
2023-05-02T12:19:58.935Z,14.65
2023-05-02T12:20:58.924Z,14.70
2023-05-02T12:21:58.910Z,14.70
2023-05-02T12:22:58.915Z,14.65
2023-05-02T12:23:58.892Z,14.62
2023-05-02T12:24:59.061Z,14.62
2023-05-02T12:25:58.854Z,14.60
2023-05-02T12:26:58.867Z,14.63
2023-05-02T12:27:58.825Z,14.72
2023-05-02T12:28:58.815Z,14.63
2023-05-02T12:29:58.817Z,14.60
2023-05-02T12:30:58.842Z,14.54
2023-05-02T12:31:58.833Z,14.60
2023-05-02T12:32:58.827Z,14.60
2023-05-02T12:33:58.751Z,14.66
2023-05-02T12:34:58.728Z,14.79
2023-05-02T12:35:58.723Z,14.85
2023-05-02T12:36:58.720Z,14.99
2023-05-02T12:37:58.705Z,15.14
2023-05-02T12:38:58.710Z,15.25
2023-05-02T12:39:58.667Z,15.44
2023-05-02T12:40:58.674Z,15.61
2023-05-02T12:41:58.654Z,15.83
2023-05-02T12:42:58.637Z,15.97
2023-05-02T12:43:58.622Z,16.13
2023-05-02T12:44:58.614Z,16.16
2023-05-02T12:45:58.595Z,16.33
2023-05-02T12:46:58.643Z,16.17
2023-05-02T12:47:58.584Z,16.13
2023-05-02T12:48:58.554Z,16.09
2023-05-02T12:49:58.608Z,16.17
2023-05-02T12:50:58.526Z,16.26
2023-05-02T12:51:58.514Z,16.21
2023-05-02T12:52:58.501Z,16.12
2023-05-02T12:53:58.502Z,16.08
2023-05-02T12:54:58.485Z,16.08
2023-05-02T12:55:58.451Z,16.12
2023-05-02T12:56:58.556Z,16.12
2023-05-02T12:57:58.432Z,16.00
2023-05-02T12:58:58.424Z,15.95
2023-05-02T12:59:58.437Z,15.90
2023-05-02T13:00:58.427Z,15.98
2023-05-02T13:01:58.382Z,16.13
2023-05-02T13:02:58.501Z,16.17
2023-05-02T13:03:58.402Z,16.09
2023-05-02T13:04:58.335Z,16.00